sensor_id;sensor_type;location;lat;lon;timestamp;P1;durP1;ratioP1;P2;durP2;ratioP2
76459;SDS011;65299;46.084;18.762;2022-12-18T00:01:56;25.58;;;9.32;;
76459;SDS011;65299;46.084;18.762;2022-12-18T00:04:59;23.67;;;8.35;;
76459;SDS011;65299;46.084;18.762;2022-12-18T00:07:59;24.33;;;8.73;;
76459;SDS011;65299;46.084;18.762;2022-12-18T00:11:03;24.07;;;8.17;;
76459;SDS011;65299;46.084;18.762;2022-12-18T00:14:05;25.02;;;9.27;;
76459;SDS011;65299;46.084;18.762;2022-12-18T00:17:05;22.77;;;7.87;;
76459;SDS011;65299;46.084;18.762;2022-12-18T00:20:06;23.10;;;8.43;;
76459;SDS011;65299;46.084;18.762;2022-12-18T00:23:07;22.25;;;8.75;;
76459;SDS011;65299;46.084;18.762;2022-12-18T00:26:09;22.17;;;9.45;;
76459;SDS011;65299;46.084;18.762;2022-12-18T00:29:12;22.07;;;8.67;;
76459;SDS011;65299;46.084;18.762;2022-12-18T00:32:13;26.92;;;9.15;;
76459;SDS011;65299;46.084;18.762;2022-12-18T00:35:14;21.93;;;9.27;;
76459;SDS011;65299;46.084;18.762;2022-12-18T00:38:14;25.13;;;9.30;;
76459;SDS011;65299;46.084;18.762;2022-12-18T00:41:15;25.93;;;9.50;;
76459;SDS011;65299;46.084;18.762;2022-12-18T00:44:36;22.38;;;9.68;;
76459;SDS011;65299;46.084;18.762;2022-12-18T00:47:36;27.57;;;10.13;;
76459;SDS011;65299;46.084;18.762;2022-12-18T00:50:36;25.00;;;9.17;;
76459;SDS011;65299;46.084;18.762;2022-12-18T00:53:37;25.00;;;9.27;;
76459;SDS011;65299;46.084;18.762;2022-12-18T00:56:38;26.42;;;9.90;;
76459;SDS011;65299;46.084;18.762;2022-12-18T00:59:38;27.17;;;10.70;;
76459;SDS011;65299;46.084;18.762;2022-12-18T01:02:39;29.40;;;10.50;;
76459;SDS011;65299;46.084;18.762;2022-12-18T01:05:41;27.73;;;10.13;;
76459;SDS011;65299;46.084;18.762;2022-12-18T01:08:42;27.30;;;10.15;;
76459;SDS011;65299;46.084;18.762;2022-12-18T01:11:42;26.83;;;10.37;;
76459;SDS011;65299;46.084;18.762;2022-12-18T01:14:43;30.33;;;10.40;;
76459;SDS011;65299;46.084;18.762;2022-12-18T01:17:43;24.47;;;9.37;;
76459;SDS011;65299;46.084;18.762;2022-12-18T01:20:44;30.70;;;10.37;;
76459;SDS011;65299;46.084;18.762;2022-12-18T01:23:44;27.23;;;9.87;;
76459;SDS011;65299;46.084;18.762;2022-12-18T01:26:45;28.88;;;10.43;;
76459;SDS011;65299;46.084;18.762;2022-12-18T01:29:45;30.33;;;12.07;;
76459;SDS011;65299;46.084;18.762;2022-12-18T01:32:46;27.40;;;10.70;;
76459;SDS011;65299;46.084;18.762;2022-12-18T01:35:46;27.85;;;10.18;;
76459;SDS011;65299;46.084;18.762;2022-12-18T01:38:46;30.23;;;10.53;;
76459;SDS011;65299;46.084;18.762;2022-12-18T01:41:47;28.33;;;10.18;;
76459;SDS011;65299;46.084;18.762;2022-12-18T01:48:15;31.25;;;11.30;;
76459;SDS011;65299;46.084;18.762;2022-12-18T01:51:16;30.07;;;10.87;;
76459;SDS011;65299;46.084;18.762;2022-12-18T01:54:17;27.05;;;9.77;;
76459;SDS011;65299;46.084;18.762;2022-12-18T01:57:18;27.27;;;10.38;;
76459;SDS011;65299;46.084;18.762;2022-12-18T02:00:20;25.50;;;9.82;;
76459;SDS011;65299;46.084;18.762;2022-12-18T02:03:21;31.70;;;10.73;;
76459;SDS011;65299;46.084;18.762;2022-12-18T02:06:27;31.13;;;11.20;;
76459;SDS011;65299;46.084;18.762;2022-12-18T02:09:38;26.20;;;10.53;;
76459;SDS011;65299;46.084;18.762;2022-12-18T02:12:57;28.23;;;10.95;;
76459;SDS011;65299;46.084;18.762;2022-12-18T02:19:04;27.70;;;10.63;;
76459;SDS011;65299;46.084;18.762;2022-12-18T02:28:37;26.00;;;10.98;;
76459;SDS011;65299;46.084;18.762;2022-12-18T02:31:53;27.30;;;10.50;;
76459;SDS011;65299;46.084;18.762;2022-12-18T02:34:56;26.95;;;9.50;;
76459;SDS011;65299;46.084;18.762;2022-12-18T02:37:59;30.25;;;11.43;;
76459;SDS011;65299;46.084;18.762;2022-12-18T02:41:01;27.80;;;10.98;;
76459;SDS011;65299;46.084;18.762;2022-12-18T02:44:11;30.88;;;11.95;;
76459;SDS011;65299;46.084;18.762;2022-12-18T02:47:13;31.90;;;10.97;;
76459;SDS011;65299;46.084;18.762;2022-12-18T02:50:18;32.45;;;11.35;;
76459;SDS011;65299;46.084;18.762;2022-12-18T02:53:45;32.53;;;10.85;;
76459;SDS011;65299;46.084;18.762;2022-12-18T02:56:52;31.77;;;10.52;;
76459;SDS011;65299;46.084;18.762;2022-12-18T03:00:39;28.67;;;11.40;;
76459;SDS011;65299;46.084;18.762;2022-12-18T03:03:24;32.40;;;11.50;;
76459;SDS011;65299;46.084;18.762;2022-12-18T03:06:31;38.10;;;14.02;;
76459;SDS011;65299;46.084;18.762;2022-12-18T03:09:36;31.60;;;12.77;;
76459;SDS011;65299;46.084;18.762;2022-12-18T03:12:43;38.03;;;12.15;;
76459;SDS011;65299;46.084;18.762;2022-12-18T03:15:49;32.67;;;11.73;;
76459;SDS011;65299;46.084;18.762;2022-12-18T03:18:52;34.60;;;11.80;;
76459;SDS011;65299;46.084;18.762;2022-12-18T03:21:57;33.25;;;12.18;;
76459;SDS011;65299;46.084;18.762;2022-12-18T03:25:01;35.53;;;12.27;;
76459;SDS011;65299;46.084;18.762;2022-12-18T03:28:05;33.08;;;11.60;;
76459;SDS011;65299;46.084;18.762;2022-12-18T03:31:09;31.42;;;10.95;;
76459;SDS011;65299;46.084;18.762;2022-12-18T03:34:13;37.47;;;12.47;;
76459;SDS011;65299;46.084;18.762;2022-12-18T03:37:19;27.70;;;10.93;;
76459;SDS011;65299;46.084;18.762;2022-12-18T03:40:21;31.80;;;11.23;;
76459;SDS011;65299;46.084;18.762;2022-12-18T03:43:34;31.73;;;11.85;;
76459;SDS011;65299;46.084;18.762;2022-12-18T03:46:41;34.17;;;11.88;;
76459;SDS011;65299;46.084;18.762;2022-12-18T03:49:48;29.90;;;11.85;;
76459;SDS011;65299;46.084;18.762;2022-12-18T03:53:12;31.70;;;11.73;;
76459;SDS011;65299;46.084;18.762;2022-12-18T03:56:20;34.00;;;12.17;;
76459;SDS011;65299;46.084;18.762;2022-12-18T03:59:25;34.72;;;11.60;;
76459;SDS011;65299;46.084;18.762;2022-12-18T04:02:29;32.22;;;11.68;;
76459;SDS011;65299;46.084;18.762;2022-12-18T04:05:31;27.10;;;10.27;;
76459;SDS011;65299;46.084;18.762;2022-12-18T04:08:34;30.55;;;11.27;;
76459;SDS011;65299;46.084;18.762;2022-12-18T04:11:35;19.73;;;7.57;;
76459;SDS011;65299;46.084;18.762;2022-12-18T04:14:35;24.58;;;9.20;;
76459;SDS011;65299;46.084;18.762;2022-12-18T04:17:35;26.63;;;10.30;;
76459;SDS011;65299;46.084;18.762;2022-12-18T04:20:36;32.13;;;11.35;;
76459;SDS011;65299;46.084;18.762;2022-12-18T04:23:37;28.50;;;10.80;;
76459;SDS011;65299;46.084;18.762;2022-12-18T04:26:37;32.23;;;11.63;;
76459;SDS011;65299;46.084;18.762;2022-12-18T04:29:38;33.05;;;11.20;;
76459;SDS011;65299;46.084;18.762;2022-12-18T04:32:38;37.83;;;13.70;;
76459;SDS011;65299;46.084;18.762;2022-12-18T04:35:39;38.27;;;14.60;;
76459;SDS011;65299;46.084;18.762;2022-12-18T04:38:40;36.90;;;13.80;;
76459;SDS011;65299;46.084;18.762;2022-12-18T04:41:40;35.40;;;12.93;;
76459;SDS011;65299;46.084;18.762;2022-12-18T04:44:41;36.10;;;13.13;;
76459;SDS011;65299;46.084;18.762;2022-12-18T04:47:41;33.83;;;13.37;;
76459;SDS011;65299;46.084;18.762;2022-12-18T04:50:41;35.30;;;13.27;;
76459;SDS011;65299;46.084;18.762;2022-12-18T04:53:42;31.63;;;11.50;;
76459;SDS011;65299;46.084;18.762;2022-12-18T04:56:43;32.10;;;13.38;;
76459;SDS011;65299;46.084;18.762;2022-12-18T04:59:43;31.30;;;11.67;;
76459;SDS011;65299;46.084;18.762;2022-12-18T05:02:44;29.98;;;11.82;;
76459;SDS011;65299;46.084;18.762;2022-12-18T05:05:44;34.67;;;12.70;;
76459;SDS011;65299;46.084;18.762;2022-12-18T05:08:45;33.37;;;12.83;;
76459;SDS011;65299;46.084;18.762;2022-12-18T05:11:45;28.33;;;11.30;;
76459;SDS011;65299;46.084;18.762;2022-12-18T05:14:46;37.13;;;12.83;;
76459;SDS011;65299;46.084;18.762;2022-12-18T05:17:47;41.80;;;14.27;;
76459;SDS011;65299;46.084;18.762;2022-12-18T05:20:47;35.60;;;14.53;;
76459;SDS011;65299;46.084;18.762;2022-12-18T05:23:49;36.42;;;14.88;;
76459;SDS011;65299;46.084;18.762;2022-12-18T05:26:50;37.43;;;14.53;;
76459;SDS011;65299;46.084;18.762;2022-12-18T05:29:50;32.33;;;11.87;;
76459;SDS011;65299;46.084;18.762;2022-12-18T05:32:50;37.20;;;13.07;;
76459;SDS011;65299;46.084;18.762;2022-12-18T05:35:55;30.87;;;11.33;;
76459;SDS011;65299;46.084;18.762;2022-12-18T05:38:56;36.97;;;12.98;;
76459;SDS011;65299;46.084;18.762;2022-12-18T05:41:57;38.33;;;12.57;;
76459;SDS011;65299;46.084;18.762;2022-12-18T05:44:57;34.58;;;12.65;;
76459;SDS011;65299;46.084;18.762;2022-12-18T05:47:57;31.13;;;12.67;;
76459;SDS011;65299;46.084;18.762;2022-12-18T05:51:03;36.67;;;14.27;;
76459;SDS011;65299;46.084;18.762;2022-12-18T05:54:05;45.17;;;15.70;;
76459;SDS011;65299;46.084;18.762;2022-12-18T05:57:06;34.93;;;13.47;;
76459;SDS011;65299;46.084;18.762;2022-12-18T06:00:06;36.73;;;13.50;;
76459;SDS011;65299;46.084;18.762;2022-12-18T06:03:08;38.17;;;15.02;;
76459;SDS011;65299;46.084;18.762;2022-12-18T06:06:13;40.25;;;15.73;;
76459;SDS011;65299;46.084;18.762;2022-12-18T06:09:19;39.35;;;16.63;;
76459;SDS011;65299;46.084;18.762;2022-12-18T06:12:20;46.23;;;19.70;;
76459;SDS011;65299;46.084;18.762;2022-12-18T06:15:21;50.20;;;20.55;;
76459;SDS011;65299;46.084;18.762;2022-12-18T06:18:21;54.63;;;21.93;;
76459;SDS011;65299;46.084;18.762;2022-12-18T06:21:21;56.50;;;23.17;;
76459;SDS011;65299;46.084;18.762;2022-12-18T06:24:22;55.17;;;22.67;;
76459;SDS011;65299;46.084;18.762;2022-12-18T06:27:22;54.37;;;19.53;;
76459;SDS011;65299;46.084;18.762;2022-12-18T06:30:23;53.83;;;20.07;;
76459;SDS011;65299;46.084;18.762;2022-12-18T06:33:25;50.30;;;19.33;;
76459;SDS011;65299;46.084;18.762;2022-12-18T06:36:29;45.35;;;19.40;;
76459;SDS011;65299;46.084;18.762;2022-12-18T06:39:30;50.05;;;19.77;;
76459;SDS011;65299;46.084;18.762;2022-12-18T06:42:30;43.57;;;17.10;;
76459;SDS011;65299;46.084;18.762;2022-12-18T06:45:32;45.20;;;18.25;;
76459;SDS011;65299;46.084;18.762;2022-12-18T06:48:32;56.57;;;22.10;;
76459;SDS011;65299;46.084;18.762;2022-12-18T06:51:33;55.17;;;22.27;;
76459;SDS011;65299;46.084;18.762;2022-12-18T06:54:33;53.10;;;22.43;;
76459;SDS011;65299;46.084;18.762;2022-12-18T06:57:34;55.47;;;22.20;;
76459;SDS011;65299;46.084;18.762;2022-12-18T07:00:34;57.43;;;22.50;;
76459;SDS011;65299;46.084;18.762;2022-12-18T07:03:35;60.30;;;22.93;;
76459;SDS011;65299;46.084;18.762;2022-12-18T07:06:35;55.55;;;21.08;;
76459;SDS011;65299;46.084;18.762;2022-12-18T07:09:36;42.40;;;16.77;;
76459;SDS011;65299;46.084;18.762;2022-12-18T07:12:36;40.57;;;15.23;;
76459;SDS011;65299;46.084;18.762;2022-12-18T07:15:37;43.83;;;16.27;;
76459;SDS011;65299;46.084;18.762;2022-12-18T07:18:37;44.20;;;16.23;;
76459;SDS011;65299;46.084;18.762;2022-12-18T07:21:38;53.73;;;19.57;;
76459;SDS011;65299;46.084;18.762;2022-12-18T07:24:38;47.60;;;19.00;;
76459;SDS011;65299;46.084;18.762;2022-12-18T07:27:38;45.87;;;18.33;;
76459;SDS011;65299;46.084;18.762;2022-12-18T07:30:39;50.63;;;16.37;;
76459;SDS011;65299;46.084;18.762;2022-12-18T07:33:39;46.33;;;17.90;;
76459;SDS011;65299;46.084;18.762;2022-12-18T07:36:40;50.13;;;17.83;;
76459;SDS011;65299;46.084;18.762;2022-12-18T07:39:41;54.57;;;20.00;;
76459;SDS011;65299;46.084;18.762;2022-12-18T07:42:41;48.13;;;17.73;;
76459;SDS011;65299;46.084;18.762;2022-12-18T07:45:42;46.33;;;16.37;;
76459;SDS011;65299;46.084;18.762;2022-12-18T07:48:43;44.33;;;15.82;;
76459;SDS011;65299;46.084;18.762;2022-12-18T07:51:44;40.57;;;15.80;;
76459;SDS011;65299;46.084;18.762;2022-12-18T07:54:48;38.55;;;15.98;;
76459;SDS011;65299;46.084;18.762;2022-12-18T07:57:49;39.90;;;16.20;;
76459;SDS011;65299;46.084;18.762;2022-12-18T08:00:50;42.63;;;16.73;;
76459;SDS011;65299;46.084;18.762;2022-12-18T08:03:52;46.55;;;18.38;;
76459;SDS011;65299;46.084;18.762;2022-12-18T08:06:52;47.47;;;17.43;;
76459;SDS011;65299;46.084;18.762;2022-12-18T08:09:53;40.38;;;15.95;;
76459;SDS011;65299;46.084;18.762;2022-12-18T08:12:53;41.10;;;15.17;;
76459;SDS011;65299;46.084;18.762;2022-12-18T08:18:58;38.72;;;14.85;;
76459;SDS011;65299;46.084;18.762;2022-12-18T08:21:58;35.60;;;12.40;;
76459;SDS011;65299;46.084;18.762;2022-12-18T08:24:58;36.70;;;12.27;;
76459;SDS011;65299;46.084;18.762;2022-12-18T08:27:59;27.23;;;8.98;;
76459;SDS011;65299;46.084;18.762;2022-12-18T08:30:59;35.60;;;12.47;;
76459;SDS011;65299;46.084;18.762;2022-12-18T08:34:00;32.57;;;12.40;;
76459;SDS011;65299;46.084;18.762;2022-12-18T08:37:00;26.70;;;10.87;;
76459;SDS011;65299;46.084;18.762;2022-12-18T08:40:00;28.58;;;10.77;;
76459;SDS011;65299;46.084;18.762;2022-12-18T08:43:01;35.23;;;13.20;;
76459;SDS011;65299;46.084;18.762;2022-12-18T08:46:21;34.83;;;11.95;;
76459;SDS011;65299;46.084;18.762;2022-12-18T08:49:23;39.15;;;13.30;;
76459;SDS011;65299;46.084;18.762;2022-12-18T08:52:23;36.27;;;14.60;;
76459;SDS011;65299;46.084;18.762;2022-12-18T08:55:24;35.77;;;13.40;;
76459;SDS011;65299;46.084;18.762;2022-12-18T08:58:24;41.53;;;16.37;;
76459;SDS011;65299;46.084;18.762;2022-12-18T09:01:25;42.73;;;15.33;;
76459;SDS011;65299;46.084;18.762;2022-12-18T09:04:25;34.33;;;12.70;;
76459;SDS011;65299;46.084;18.762;2022-12-18T09:07:26;37.63;;;14.30;;
76459;SDS011;65299;46.084;18.762;2022-12-18T09:10:26;38.20;;;14.97;;
76459;SDS011;65299;46.084;18.762;2022-12-18T09:13:27;41.13;;;15.97;;
76459;SDS011;65299;46.084;18.762;2022-12-18T09:16:28;33.63;;;13.07;;
76459;SDS011;65299;46.084;18.762;2022-12-18T09:19:29;34.92;;;13.77;;
76459;SDS011;65299;46.084;18.762;2022-12-18T09:22:29;41.07;;;15.93;;
76459;SDS011;65299;46.084;18.762;2022-12-18T09:25:30;37.38;;;14.60;;
76459;SDS011;65299;46.084;18.762;2022-12-18T09:28:33;34.78;;;13.98;;
76459;SDS011;65299;46.084;18.762;2022-12-18T09:31:33;41.87;;;16.33;;
76459;SDS011;65299;46.084;18.762;2022-12-18T09:34:34;45.55;;;16.05;;
76459;SDS011;65299;46.084;18.762;2022-12-18T09:37:34;49.80;;;16.70;;
76459;SDS011;65299;46.084;18.762;2022-12-18T09:40:36;42.07;;;16.40;;
76459;SDS011;65299;46.084;18.762;2022-12-18T09:43:44;36.67;;;13.82;;
76459;SDS011;65299;46.084;18.762;2022-12-18T09:46:48;37.97;;;14.68;;
76459;SDS011;65299;46.084;18.762;2022-12-18T09:49:56;44.40;;;15.87;;
76459;SDS011;65299;46.084;18.762;2022-12-18T09:53:05;38.17;;;15.07;;
76459;SDS011;65299;46.084;18.762;2022-12-18T09:56:12;32.72;;;12.45;;
76459;SDS011;65299;46.084;18.762;2022-12-18T09:59:24;39.17;;;15.18;;
76459;SDS011;65299;46.084;18.762;2022-12-18T10:02:35;40.53;;;15.57;;
76459;SDS011;65299;46.084;18.762;2022-12-18T10:25:51;34.03;;;12.85;;
76459;SDS011;65299;46.084;18.762;2022-12-18T10:28:57;32.43;;;13.47;;
76459;SDS011;65299;46.084;18.762;2022-12-18T10:31:59;27.55;;;10.88;;
76459;SDS011;65299;46.084;18.762;2022-12-18T10:34:59;21.33;;;8.23;;
76459;SDS011;65299;46.084;18.762;2022-12-18T10:38:07;37.42;;;14.65;;
76459;SDS011;65299;46.084;18.762;2022-12-18T10:41:30;42.97;;;17.00;;
76459;SDS011;65299;46.084;18.762;2022-12-18T10:44:32;38.90;;;14.93;;
76459;SDS011;65299;46.084;18.762;2022-12-18T10:47:32;36.70;;;16.00;;
76459;SDS011;65299;46.084;18.762;2022-12-18T10:50:35;33.77;;;12.67;;
76459;SDS011;65299;46.084;18.762;2022-12-18T10:53:37;45.22;;;16.27;;
76459;SDS011;65299;46.084;18.762;2022-12-18T10:56:40;36.03;;;13.60;;
76459;SDS011;65299;46.084;18.762;2022-12-18T10:59:49;42.95;;;16.63;;
76459;SDS011;65299;46.084;18.762;2022-12-18T11:02:52;36.80;;;13.63;;
76459;SDS011;65299;46.084;18.762;2022-12-18T11:06:01;84.07;;;25.85;;
76459;SDS011;65299;46.084;18.762;2022-12-18T11:09:09;31.37;;;12.30;;
76459;SDS011;65299;46.084;18.762;2022-12-18T11:12:20;70.07;;;22.20;;
76459;SDS011;65299;46.084;18.762;2022-12-18T11:15:26;43.15;;;14.65;;
76459;SDS011;65299;46.084;18.762;2022-12-18T11:18:30;31.55;;;12.55;;
76459;SDS011;65299;46.084;18.762;2022-12-18T11:21:38;32.38;;;12.45;;
76459;SDS011;65299;46.084;18.762;2022-12-18T11:24:40;30.23;;;12.40;;
76459;SDS011;65299;46.084;18.762;2022-12-18T11:27:40;30.92;;;12.60;;
76459;SDS011;65299;46.084;18.762;2022-12-18T11:34:26;28.95;;;12.75;;
76459;SDS011;65299;46.084;18.762;2022-12-18T11:37:31;29.70;;;11.93;;
76459;SDS011;65299;46.084;18.762;2022-12-18T11:40:36;29.95;;;11.52;;
76459;SDS011;65299;46.084;18.762;2022-12-18T11:43:38;28.60;;;11.32;;
76459;SDS011;65299;46.084;18.762;2022-12-18T11:50:28;29.05;;;12.90;;
76459;SDS011;65299;46.084;18.762;2022-12-18T11:53:33;31.50;;;12.93;;
76459;SDS011;65299;46.084;18.762;2022-12-18T11:56:39;37.88;;;16.20;;
76459;SDS011;65299;46.084;18.762;2022-12-18T11:59:52;40.60;;;17.13;;
76459;SDS011;65299;46.084;18.762;2022-12-18T12:22:58;37.83;;;14.80;;
76459;SDS011;65299;46.084;18.762;2022-12-18T12:26:11;31.30;;;12.37;;
76459;SDS011;65299;46.084;18.762;2022-12-18T12:29:27;40.38;;;15.55;;
76459;SDS011;65299;46.084;18.762;2022-12-18T12:39:11;31.95;;;14.15;;
76459;SDS011;65299;46.084;18.762;2022-12-18T12:46:04;38.40;;;14.90;;
76459;SDS011;65299;46.084;18.762;2022-12-18T12:49:17;34.55;;;14.43;;
76459;SDS011;65299;46.084;18.762;2022-12-18T12:52:27;36.58;;;14.68;;
76459;SDS011;65299;46.084;18.762;2022-12-18T12:55:28;37.83;;;13.88;;
76459;SDS011;65299;46.084;18.762;2022-12-18T13:08:29;38.58;;;15.10;;
76459;SDS011;65299;46.084;18.762;2022-12-18T13:11:38;35.78;;;13.98;;
76459;SDS011;65299;46.084;18.762;2022-12-18T13:15:13;39.67;;;15.43;;
76459;SDS011;65299;46.084;18.762;2022-12-18T13:18:22;38.83;;;14.88;;
76459;SDS011;65299;46.084;18.762;2022-12-18T13:24:30;32.70;;;13.38;;
76459;SDS011;65299;46.084;18.762;2022-12-18T13:30:44;31.70;;;13.23;;
76459;SDS011;65299;46.084;18.762;2022-12-18T13:33:47;35.85;;;14.80;;
76459;SDS011;65299;46.084;18.762;2022-12-18T13:36:48;40.00;;;14.98;;
76459;SDS011;65299;46.084;18.762;2022-12-18T13:39:49;37.75;;;14.93;;
76459;SDS011;65299;46.084;18.762;2022-12-18T13:42:49;61.73;;;23.20;;
76459;SDS011;65299;46.084;18.762;2022-12-18T13:49:43;42.93;;;17.70;;
76459;SDS011;65299;46.084;18.762;2022-12-18T13:52:44;39.33;;;16.10;;
76459;SDS011;65299;46.084;18.762;2022-12-18T13:55:45;39.30;;;16.25;;
76459;SDS011;65299;46.084;18.762;2022-12-18T13:58:45;42.23;;;16.20;;
76459;SDS011;65299;46.084;18.762;2022-12-18T14:01:51;39.55;;;17.15;;
76459;SDS011;65299;46.084;18.762;2022-12-18T14:04:56;41.13;;;16.37;;
76459;SDS011;65299;46.084;18.762;2022-12-18T14:08:08;37.78;;;15.68;;
76459;SDS011;65299;46.084;18.762;2022-12-18T14:11:17;41.73;;;14.73;;
76459;SDS011;65299;46.084;18.762;2022-12-18T14:14:22;42.95;;;17.77;;
76459;SDS011;65299;46.084;18.762;2022-12-18T14:17:23;46.87;;;17.60;;
76459;SDS011;65299;46.084;18.762;2022-12-18T14:20:30;46.33;;;18.40;;
76459;SDS011;65299;46.084;18.762;2022-12-18T14:23:39;43.80;;;16.67;;
76459;SDS011;65299;46.084;18.762;2022-12-18T14:26:41;47.30;;;18.85;;
76459;SDS011;65299;46.084;18.762;2022-12-18T14:29:42;48.75;;;19.83;;
76459;SDS011;65299;46.084;18.762;2022-12-18T14:32:44;54.17;;;20.08;;
76459;SDS011;65299;46.084;18.762;2022-12-18T14:36:02;49.25;;;18.98;;
76459;SDS011;65299;46.084;18.762;2022-12-18T14:39:05;51.73;;;19.50;;
76459;SDS011;65299;46.084;18.762;2022-12-18T14:42:05;52.22;;;19.55;;
76459;SDS011;65299;46.084;18.762;2022-12-18T14:45:32;57.10;;;21.25;;
76459;SDS011;65299;46.084;18.762;2022-12-18T14:48:39;48.53;;;18.47;;
76459;SDS011;65299;46.084;18.762;2022-12-18T14:51:41;50.83;;;18.85;;
76459;SDS011;65299;46.084;18.762;2022-12-18T14:54:51;53.60;;;18.63;;
76459;SDS011;65299;46.084;18.762;2022-12-18T14:57:54;51.90;;;18.67;;
76459;SDS011;65299;46.084;18.762;2022-12-18T15:00:56;56.42;;;19.55;;
76459;SDS011;65299;46.084;18.762;2022-12-18T15:03:57;55.55;;;18.85;;
76459;SDS011;65299;46.084;18.762;2022-12-18T15:07:07;53.27;;;20.83;;
76459;SDS011;65299;46.084;18.762;2022-12-18T15:13:24;53.67;;;19.20;;
76459;SDS011;65299;46.084;18.762;2022-12-18T15:16:25;53.45;;;18.45;;
76459;SDS011;65299;46.084;18.762;2022-12-18T15:19:33;58.60;;;19.13;;
76459;SDS011;65299;46.084;18.762;2022-12-18T15:22:38;57.72;;;20.17;;
76459;SDS011;65299;46.084;18.762;2022-12-18T15:25:39;49.97;;;18.63;;
76459;SDS011;65299;46.084;18.762;2022-12-18T15:32:03;55.88;;;19.58;;
76459;SDS011;65299;46.084;18.762;2022-12-18T15:38:17;54.17;;;20.33;;
76459;SDS011;65299;46.084;18.762;2022-12-18T15:41:19;67.37;;;21.87;;
76459;SDS011;65299;46.084;18.762;2022-12-18T15:44:22;70.47;;;22.52;;
76459;SDS011;65299;46.084;18.762;2022-12-18T15:47:24;73.70;;;24.70;;
76459;SDS011;65299;46.084;18.762;2022-12-18T15:50:24;68.60;;;23.47;;
76459;SDS011;65299;46.084;18.762;2022-12-18T15:53:26;70.47;;;22.90;;
76459;SDS011;65299;46.084;18.762;2022-12-18T15:56:30;72.30;;;24.70;;
76459;SDS011;65299;46.084;18.762;2022-12-18T15:59:53;62.10;;;20.13;;
76459;SDS011;65299;46.084;18.762;2022-12-18T16:02:57;62.65;;;20.88;;
76459;SDS011;65299;46.084;18.762;2022-12-18T16:05:58;63.77;;;22.80;;
76459;SDS011;65299;46.084;18.762;2022-12-18T16:09:02;70.00;;;24.20;;
76459;SDS011;65299;46.084;18.762;2022-12-18T16:12:02;65.20;;;23.40;;
76459;SDS011;65299;46.084;18.762;2022-12-18T16:15:04;64.57;;;22.67;;
76459;SDS011;65299;46.084;18.762;2022-12-18T16:18:05;62.85;;;21.45;;
76459;SDS011;65299;46.084;18.762;2022-12-18T16:21:07;58.63;;;19.93;;
76459;SDS011;65299;46.084;18.762;2022-12-18T16:24:15;56.23;;;19.50;;
76459;SDS011;65299;46.084;18.762;2022-12-18T16:27:16;58.65;;;19.40;;
76459;SDS011;65299;46.084;18.762;2022-12-18T16:30:19;70.70;;;24.70;;
76459;SDS011;65299;46.084;18.762;2022-12-18T16:33:30;72.72;;;25.45;;
76459;SDS011;65299;46.084;18.762;2022-12-18T16:36:30;59.63;;;21.53;;
76459;SDS011;65299;46.084;18.762;2022-12-18T16:39:31;64.33;;;22.43;;
76459;SDS011;65299;46.084;18.762;2022-12-18T16:42:34;68.88;;;23.30;;
76459;SDS011;65299;46.084;18.762;2022-12-18T16:45:35;67.85;;;24.80;;
76459;SDS011;65299;46.084;18.762;2022-12-18T16:48:36;65.33;;;24.10;;
76459;SDS011;65299;46.084;18.762;2022-12-18T16:51:36;66.93;;;23.00;;
76459;SDS011;65299;46.084;18.762;2022-12-18T16:54:37;68.38;;;24.88;;
76459;SDS011;65299;46.084;18.762;2022-12-18T16:57:37;65.93;;;24.03;;
76459;SDS011;65299;46.084;18.762;2022-12-18T17:00:38;68.40;;;23.30;;
76459;SDS011;65299;46.084;18.762;2022-12-18T17:03:40;74.20;;;25.23;;
76459;SDS011;65299;46.084;18.762;2022-12-18T17:06:41;76.17;;;25.20;;
76459;SDS011;65299;46.084;18.762;2022-12-18T17:09:43;69.35;;;24.77;;
76459;SDS011;65299;46.084;18.762;2022-12-18T17:12:44;59.87;;;21.33;;
76459;SDS011;65299;46.084;18.762;2022-12-18T17:15:44;59.67;;;20.88;;
76459;SDS011;65299;46.084;18.762;2022-12-18T17:18:45;50.67;;;18.13;;
76459;SDS011;65299;46.084;18.762;2022-12-18T17:21:47;62.17;;;20.95;;
76459;SDS011;65299;46.084;18.762;2022-12-18T17:24:49;56.33;;;18.27;;
76459;SDS011;65299;46.084;18.762;2022-12-18T17:27:50;52.58;;;19.55;;
76459;SDS011;65299;46.084;18.762;2022-12-18T17:30:54;63.17;;;20.33;;
76459;SDS011;65299;46.084;18.762;2022-12-18T17:33:55;52.40;;;18.52;;
76459;SDS011;65299;46.084;18.762;2022-12-18T17:36:56;55.65;;;19.13;;
76459;SDS011;65299;46.084;18.762;2022-12-18T17:39:57;60.77;;;20.97;;
76459;SDS011;65299;46.084;18.762;2022-12-18T17:42:57;64.03;;;19.13;;
76459;SDS011;65299;46.084;18.762;2022-12-18T17:46:01;67.53;;;20.73;;
76459;SDS011;65299;46.084;18.762;2022-12-18T17:49:03;58.17;;;20.27;;
76459;SDS011;65299;46.084;18.762;2022-12-18T17:52:03;56.93;;;19.00;;
76459;SDS011;65299;46.084;18.762;2022-12-18T17:55:04;48.42;;;17.02;;
76459;SDS011;65299;46.084;18.762;2022-12-18T17:58:05;56.88;;;19.67;;
76459;SDS011;65299;46.084;18.762;2022-12-18T18:01:06;50.43;;;17.83;;
76459;SDS011;65299;46.084;18.762;2022-12-18T18:04:07;49.55;;;17.98;;
76459;SDS011;65299;46.084;18.762;2022-12-18T18:07:07;48.27;;;17.53;;
76459;SDS011;65299;46.084;18.762;2022-12-18T18:10:08;57.78;;;20.35;;
76459;SDS011;65299;46.084;18.762;2022-12-18T18:13:17;55.70;;;19.07;;
76459;SDS011;65299;46.084;18.762;2022-12-18T18:16:48;54.33;;;19.65;;
76459;SDS011;65299;46.084;18.762;2022-12-18T18:19:50;49.10;;;16.92;;
76459;SDS011;65299;46.084;18.762;2022-12-18T18:22:50;50.83;;;17.60;;
76459;SDS011;65299;46.084;18.762;2022-12-18T18:25:51;52.13;;;17.90;;
76459;SDS011;65299;46.084;18.762;2022-12-18T18:28:52;54.17;;;17.77;;
76459;SDS011;65299;46.084;18.762;2022-12-18T18:31:53;57.63;;;18.55;;
76459;SDS011;65299;46.084;18.762;2022-12-18T18:34:53;54.00;;;18.60;;
76459;SDS011;65299;46.084;18.762;2022-12-18T18:37:54;51.43;;;17.43;;
76459;SDS011;65299;46.084;18.762;2022-12-18T18:40:58;50.60;;;17.98;;
76459;SDS011;65299;46.084;18.762;2022-12-18T18:43:59;58.73;;;19.00;;
76459;SDS011;65299;46.084;18.762;2022-12-18T18:47:00;52.97;;;18.02;;
76459;SDS011;65299;46.084;18.762;2022-12-18T18:50:00;49.33;;;16.53;;
76459;SDS011;65299;46.084;18.762;2022-12-18T18:53:01;50.00;;;16.83;;
76459;SDS011;65299;46.084;18.762;2022-12-18T18:56:01;60.08;;;18.13;;
76459;SDS011;65299;46.084;18.762;2022-12-18T18:59:01;53.83;;;19.43;;
76459;SDS011;65299;46.084;18.762;2022-12-18T19:02:02;60.00;;;19.80;;
76459;SDS011;65299;46.084;18.762;2022-12-18T19:05:02;60.93;;;19.47;;
76459;SDS011;65299;46.084;18.762;2022-12-18T19:08:03;64.63;;;20.95;;
76459;SDS011;65299;46.084;18.762;2022-12-18T19:11:05;57.63;;;18.43;;
76459;SDS011;65299;46.084;18.762;2022-12-18T19:14:25;63.88;;;19.02;;
76459;SDS011;65299;46.084;18.762;2022-12-18T19:17:26;60.50;;;20.00;;
76459;SDS011;65299;46.084;18.762;2022-12-18T19:20:27;58.72;;;19.35;;
76459;SDS011;65299;46.084;18.762;2022-12-18T19:23:28;58.20;;;20.10;;